sensor_id;sensor_type;location;lat;lon;timestamp;P1;durP1;ratioP1;P2;durP2;ratioP2
26530;SDS011;14201;43.188;24.160;2023-04-03T00:02:16;7.00;;;3.90;;
26530;SDS011;14201;43.188;24.160;2023-04-03T00:04:42;7.72;;;4.40;;
26530;SDS011;14201;43.188;24.160;2023-04-03T00:07:07;5.55;;;3.90;;
26530;SDS011;14201;43.188;24.160;2023-04-03T00:09:33;8.82;;;4.18;;
26530;SDS011;14201;43.188;24.160;2023-04-03T00:11:58;11.20;;;3.92;;
26530;SDS011;14201;43.188;24.160;2023-04-03T00:14:24;5.97;;;3.67;;
26530;SDS011;14201;43.188;24.160;2023-04-03T00:16:49;6.05;;;4.15;;
26530;SDS011;14201;43.188;24.160;2023-04-03T00:19:15;9.15;;;4.45;;
26530;SDS011;14201;43.188;24.160;2023-04-03T00:21:40;9.00;;;3.97;;
26530;SDS011;14201;43.188;24.160;2023-04-03T00:24:06;8.23;;;4.00;;
26530;SDS011;14201;43.188;24.160;2023-04-03T00:26:32;5.68;;;3.53;;
26530;SDS011;14201;43.188;24.160;2023-04-03T00:28:57;6.70;;;3.70;;
26530;SDS011;14201;43.188;24.160;2023-04-03T00:31:23;4.90;;;3.70;;
26530;SDS011;14201;43.188;24.160;2023-04-03T00:33:48;6.47;;;3.88;;
26530;SDS011;14201;43.188;24.160;2023-04-03T00:36:14;6.95;;;3.60;;
26530;SDS011;14201;43.188;24.160;2023-04-03T00:38:40;4.43;;;3.60;;
26530;SDS011;14201;43.188;24.160;2023-04-03T00:41:06;5.47;;;3.78;;
26530;SDS011;14201;43.188;24.160;2023-04-03T00:43:32;8.43;;;4.30;;
26530;SDS011;14201;43.188;24.160;2023-04-03T00:45:58;7.90;;;4.03;;
26530;SDS011;14201;43.188;24.160;2023-04-03T00:48:29;9.75;;;3.95;;
26530;SDS011;14201;43.188;24.160;2023-04-03T00:50:58;7.18;;;4.03;;
26530;SDS011;14201;43.188;24.160;2023-04-03T00:53:35;6.93;;;3.80;;
26530;SDS011;14201;43.188;24.160;2023-04-03T00:56:08;5.90;;;4.20;;
26530;SDS011;14201;43.188;24.160;2023-04-03T00:58:38;7.50;;;4.15;;
26530;SDS011;14201;43.188;24.160;2023-04-03T01:01:10;6.18;;;4.10;;
26530;SDS011;14201;43.188;24.160;2023-04-03T01:03:40;6.32;;;3.70;;
26530;SDS011;14201;43.188;24.160;2023-04-03T01:06:05;5.72;;;3.70;;
26530;SDS011;14201;43.188;24.160;2023-04-03T01:08:31;6.20;;;3.75;;
26530;SDS011;14201;43.188;24.160;2023-04-03T01:10:57;7.60;;;4.18;;
26530;SDS011;14201;43.188;24.160;2023-04-03T01:13:25;7.22;;;4.07;;
26530;SDS011;14201;43.188;24.160;2023-04-03T01:15:56;7.07;;;4.35;;
26530;SDS011;14201;43.188;24.160;2023-04-03T01:18:25;8.30;;;4.40;;
26530;SDS011;14201;43.188;24.160;2023-04-03T01:23:58;7.20;;;4.43;;
26530;SDS011;14201;43.188;24.160;2023-04-03T01:26:43;6.82;;;4.28;;
26530;SDS011;14201;43.188;24.160;2023-04-03T01:29:10;6.63;;;3.53;;
26530;SDS011;14201;43.188;24.160;2023-04-03T01:31:56;6.55;;;4.15;;
26530;SDS011;14201;43.188;24.160;2023-04-03T01:34:23;8.75;;;4.13;;
26530;SDS011;14201;43.188;24.160;2023-04-03T01:36:50;7.15;;;4.05;;
26530;SDS011;14201;43.188;24.160;2023-04-03T01:39:16;6.45;;;4.43;;
26530;SDS011;14201;43.188;24.160;2023-04-03T01:41:41;9.23;;;4.28;;
26530;SDS011;14201;43.188;24.160;2023-04-03T01:44:07;7.07;;;4.25;;
26530;SDS011;14201;43.188;24.160;2023-04-03T01:46:33;8.82;;;4.25;;
26530;SDS011;14201;43.188;24.160;2023-04-03T01:48:58;7.63;;;3.90;;
26530;SDS011;14201;43.188;24.160;2023-04-03T01:51:24;5.93;;;3.88;;
26530;SDS011;14201;43.188;24.160;2023-04-03T01:53:49;6.40;;;4.00;;
26530;SDS011;14201;43.188;24.160;2023-04-03T01:56:16;6.25;;;3.85;;
26530;SDS011;14201;43.188;24.160;2023-04-03T01:58:42;4.63;;;3.30;;
26530;SDS011;14201;43.188;24.160;2023-04-03T02:01:07;6.90;;;3.70;;
26530;SDS011;14201;43.188;24.160;2023-04-03T02:03:33;5.05;;;3.25;;
26530;SDS011;14201;43.188;24.160;2023-04-03T02:05:59;5.15;;;3.22;;
26530;SDS011;14201;43.188;24.160;2023-04-03T02:08:25;5.68;;;3.42;;
26530;SDS011;14201;43.188;24.160;2023-04-03T02:10:51;4.70;;;3.17;;
26530;SDS011;14201;43.188;24.160;2023-04-03T02:13:17;6.63;;;3.17;;
26530;SDS011;14201;43.188;24.160;2023-04-03T02:15:43;7.55;;;2.90;;
26530;SDS011;14201;43.188;24.160;2023-04-03T02:18:08;7.45;;;3.63;;
26530;SDS011;14201;43.188;24.160;2023-04-03T02:20:35;5.80;;;3.70;;
26530;SDS011;14201;43.188;24.160;2023-04-03T02:23:00;7.07;;;3.75;;
26530;SDS011;14201;43.188;24.160;2023-04-03T02:25:27;5.10;;;3.08;;
26530;SDS011;14201;43.188;24.160;2023-04-03T02:27:53;6.35;;;3.22;;
26530;SDS011;14201;43.188;24.160;2023-04-03T02:30:18;6.18;;;3.83;;
26530;SDS011;14201;43.188;24.160;2023-04-03T02:32:44;5.78;;;3.75;;
26530;SDS011;14201;43.188;24.160;2023-04-03T02:35:10;6.45;;;3.15;;
26530;SDS011;14201;43.188;24.160;2023-04-03T02:37:37;8.55;;;3.67;;
26530;SDS011;14201;43.188;24.160;2023-04-03T02:40:03;4.38;;;3.22;;
26530;SDS011;14201;43.188;24.160;2023-04-03T02:42:30;4.45;;;3.22;;
26530;SDS011;14201;43.188;24.160;2023-04-03T02:44:56;4.22;;;3.05;;
26530;SDS011;14201;43.188;24.160;2023-04-03T02:47:21;6.07;;;3.30;;
26530;SDS011;14201;43.188;24.160;2023-04-03T02:49:47;4.97;;;2.83;;
26530;SDS011;14201;43.188;24.160;2023-04-03T02:52:13;8.15;;;3.28;;
26530;SDS011;14201;43.188;24.160;2023-04-03T02:54:39;4.20;;;2.95;;
26530;SDS011;14201;43.188;24.160;2023-04-03T02:57:05;5.15;;;3.10;;
26530;SDS011;14201;43.188;24.160;2023-04-03T02:59:33;5.05;;;3.00;;
26530;SDS011;14201;43.188;24.160;2023-04-03T03:02:00;5.32;;;4.10;;
26530;SDS011;14201;43.188;24.160;2023-04-03T03:04:25;6.45;;;3.90;;
26530;SDS011;14201;43.188;24.160;2023-04-03T03:06:51;3.80;;;3.20;;
26530;SDS011;14201;43.188;24.160;2023-04-03T03:09:17;4.22;;;2.70;;
26530;SDS011;14201;43.188;24.160;2023-04-03T03:11:43;4.03;;;2.80;;
26530;SDS011;14201;43.188;24.160;2023-04-03T03:14:08;4.85;;;2.70;;
26530;SDS011;14201;43.188;24.160;2023-04-03T03:16:34;4.20;;;3.13;;
26530;SDS011;14201;43.188;24.160;2023-04-03T03:19:00;5.65;;;3.00;;
26530;SDS011;14201;43.188;24.160;2023-04-03T03:21:25;4.18;;;2.70;;
26530;SDS011;14201;43.188;24.160;2023-04-03T03:23:51;4.55;;;2.88;;
26530;SDS011;14201;43.188;24.160;2023-04-03T03:26:16;4.43;;;2.67;;
26530;SDS011;14201;43.188;24.160;2023-04-03T03:28:42;3.63;;;2.70;;
26530;SDS011;14201;43.188;24.160;2023-04-03T03:31:08;3.90;;;2.70;;
26530;SDS011;14201;43.188;24.160;2023-04-03T03:33:34;4.38;;;2.70;;
26530;SDS011;14201;43.188;24.160;2023-04-03T03:35:59;3.83;;;2.88;;
26530;SDS011;14201;43.188;24.160;2023-04-03T03:38:25;4.45;;;2.83;;
26530;SDS011;14201;43.188;24.160;2023-04-03T03:40:51;8.25;;;3.38;;
26530;SDS011;14201;43.188;24.160;2023-04-03T03:43:17;6.22;;;3.47;;
26530;SDS011;14201;43.188;24.160;2023-04-03T03:45:43;5.45;;;3.13;;
26530;SDS011;14201;43.188;24.160;2023-04-03T03:48:10;4.60;;;3.05;;
26530;SDS011;14201;43.188;24.160;2023-04-03T03:50:36;3.75;;;2.75;;
26530;SDS011;14201;43.188;24.160;2023-04-03T03:53:02;6.53;;;3.10;;
26530;SDS011;14201;43.188;24.160;2023-04-03T03:55:28;4.53;;;3.22;;
26530;SDS011;14201;43.188;24.160;2023-04-03T03:57:53;4.55;;;3.20;;
26530;SDS011;14201;43.188;24.160;2023-04-03T04:00:19;5.50;;;2.95;;
26530;SDS011;14201;43.188;24.160;2023-04-03T04:02:45;8.25;;;2.85;;
26530;SDS011;14201;43.188;24.160;2023-04-03T04:05:11;4.30;;;2.65;;
26530;SDS011;14201;43.188;24.160;2023-04-03T04:07:36;6.15;;;3.20;;
26530;SDS011;14201;43.188;24.160;2023-04-03T04:10:02;10.05;;;3.40;;
26530;SDS011;14201;43.188;24.160;2023-04-03T04:12:28;4.55;;;2.70;;
26530;SDS011;14201;43.188;24.160;2023-04-03T04:14:54;3.47;;;2.63;;
26530;SDS011;14201;43.188;24.160;2023-04-03T04:17:21;5.97;;;3.67;;
26530;SDS011;14201;43.188;24.160;2023-04-03T04:19:46;4.45;;;3.13;;
26530;SDS011;14201;43.188;24.160;2023-04-03T04:22:12;5.22;;;3.00;;
26530;SDS011;14201;43.188;24.160;2023-04-03T04:24:38;6.32;;;3.22;;
26530;SDS011;14201;43.188;24.160;2023-04-03T04:27:03;6.25;;;3.10;;
26530;SDS011;14201;43.188;24.160;2023-04-03T04:29:29;5.38;;;3.30;;
26530;SDS011;14201;43.188;24.160;2023-04-03T04:32:00;5.60;;;3.05;;
26530;SDS011;14201;43.188;24.160;2023-04-03T04:34:25;27.48;;;16.05;;
26530;SDS011;14201;43.188;24.160;2023-04-03T04:36:51;12.55;;;6.78;;
26530;SDS011;14201;43.188;24.160;2023-04-03T04:39:17;32.22;;;15.50;;
26530;SDS011;14201;43.188;24.160;2023-04-03T04:41:42;14.13;;;6.63;;
26530;SDS011;14201;43.188;24.160;2023-04-03T04:44:08;6.00;;;3.90;;
26530;SDS011;14201;43.188;24.160;2023-04-03T04:46:33;9.02;;;4.28;;
26530;SDS011;14201;43.188;24.160;2023-04-03T04:48:59;5.78;;;3.78;;
26530;SDS011;14201;43.188;24.160;2023-04-03T04:51:24;4.05;;;2.58;;
26530;SDS011;14201;43.188;24.160;2023-04-03T04:53:50;4.15;;;2.92;;
26530;SDS011;14201;43.188;24.160;2023-04-03T04:56:16;3.35;;;2.28;;
26530;SDS011;14201;43.188;24.160;2023-04-03T04:58:42;5.30;;;2.60;;
26530;SDS011;14201;43.188;24.160;2023-04-03T05:01:09;5.53;;;2.78;;
26530;SDS011;14201;43.188;24.160;2023-04-03T05:03:35;3.78;;;2.70;;
26530;SDS011;14201;43.188;24.160;2023-04-03T05:06:01;4.95;;;3.13;;
26530;SDS011;14201;43.188;24.160;2023-04-03T05:08:27;3.85;;;2.95;;
26530;SDS011;14201;43.188;24.160;2023-04-03T05:10:53;6.57;;;2.58;;
26530;SDS011;14201;43.188;24.160;2023-04-03T05:13:19;4.00;;;2.72;;
26530;SDS011;14201;43.188;24.160;2023-04-03T05:15:45;6.47;;;2.80;;
26530;SDS011;14201;43.188;24.160;2023-04-03T05:18:12;5.57;;;3.13;;
26530;SDS011;14201;43.188;24.160;2023-04-03T05:20:38;8.23;;;2.47;;
26530;SDS011;14201;43.188;24.160;2023-04-03T05:23:03;3.50;;;2.45;;
26530;SDS011;14201;43.188;24.160;2023-04-03T05:25:29;4.75;;;2.60;;
26530;SDS011;14201;43.188;24.160;2023-04-03T05:27:55;4.13;;;2.42;;
26530;SDS011;14201;43.188;24.160;2023-04-03T05:30:21;3.38;;;2.13;;
26530;SDS011;14201;43.188;24.160;2023-04-03T05:32:47;3.60;;;2.20;;
26530;SDS011;14201;43.188;24.160;2023-04-03T05:35:13;3.50;;;1.98;;
26530;SDS011;14201;43.188;24.160;2023-04-03T05:37:39;4.90;;;2.10;;
26530;SDS011;14201;43.188;24.160;2023-04-03T05:40:05;3.40;;;2.20;;
26530;SDS011;14201;43.188;24.160;2023-04-03T05:42:32;3.60;;;2.17;;
26530;SDS011;14201;43.188;24.160;2023-04-03T05:44:57;5.15;;;1.98;;
26530;SDS011;14201;43.188;24.160;2023-04-03T05:47:23;3.85;;;2.03;;
26530;SDS011;14201;43.188;24.160;2023-04-03T05:49:48;4.28;;;2.20;;
26530;SDS011;14201;43.188;24.160;2023-04-03T05:52:20;3.55;;;2.00;;
26530;SDS011;14201;43.188;24.160;2023-04-03T05:54:51;4.80;;;1.85;;
26530;SDS011;14201;43.188;24.160;2023-04-03T05:57:17;3.10;;;1.80;;
26530;SDS011;14201;43.188;24.160;2023-04-03T05:59:43;3.03;;;1.83;;
26530;SDS011;14201;43.188;24.160;2023-04-03T06:02:13;3.45;;;1.77;;
26530;SDS011;14201;43.188;24.160;2023-04-03T06:04:47;4.00;;;1.83;;
26530;SDS011;14201;43.188;24.160;2023-04-03T06:07:14;4.25;;;2.00;;
26530;SDS011;14201;43.188;24.160;2023-04-03T06:09:42;2.97;;;1.85;;
26530;SDS011;14201;43.188;24.160;2023-04-03T06:12:08;2.90;;;1.80;;
26530;SDS011;14201;43.188;24.160;2023-04-03T06:14:35;2.78;;;1.52;;
26530;SDS011;14201;43.188;24.160;2023-04-03T06:17:01;3.63;;;1.48;;
26530;SDS011;14201;43.188;24.160;2023-04-03T06:19:27;3.70;;;1.85;;
26530;SDS011;14201;43.188;24.160;2023-04-03T06:21:53;2.78;;;1.80;;
26530;SDS011;14201;43.188;24.160;2023-04-03T06:24:19;2.92;;;1.77;;
26530;SDS011;14201;43.188;24.160;2023-04-03T06:26:47;2.85;;;1.42;;
26530;SDS011;14201;43.188;24.160;2023-04-03T06:29:14;3.85;;;1.58;;
26530;SDS011;14201;43.188;24.160;2023-04-03T06:31:40;3.42;;;1.60;;
26530;SDS011;14201;43.188;24.160;2023-04-03T06:34:06;6.30;;;1.70;;
26530;SDS011;14201;43.188;24.160;2023-04-03T06:36:32;2.33;;;1.30;;
26530;SDS011;14201;43.188;24.160;2023-04-03T06:38:58;4.82;;;2.80;;
26530;SDS011;14201;43.188;24.160;2023-04-03T06:41:24;4.32;;;2.50;;
26530;SDS011;14201;43.188;24.160;2023-04-03T06:43:51;2.85;;;1.40;;
26530;SDS011;14201;43.188;24.160;2023-04-03T06:46:17;3.25;;;1.20;;
26530;SDS011;14201;43.188;24.160;2023-04-03T06:48:46;2.08;;;1.13;;
26530;SDS011;14201;43.188;24.160;2023-04-03T06:51:19;1.55;;;1.10;;
26530;SDS011;14201;43.188;24.160;2023-04-03T06:53:48;2.33;;;1.17;;
26530;SDS011;14201;43.188;24.160;2023-04-03T06:56:15;2.30;;;1.52;;
26530;SDS011;14201;43.188;24.160;2023-04-03T06:58:41;2.58;;;1.20;;
26530;SDS011;14201;43.188;24.160;2023-04-03T07:01:08;1.65;;;1.27;;
26530;SDS011;14201;43.188;24.160;2023-04-03T07:03:36;2.70;;;1.40;;
26530;SDS011;14201;43.188;24.160;2023-04-03T07:06:02;2.47;;;1.52;;
26530;SDS011;14201;43.188;24.160;2023-04-03T07:08:28;1.77;;;1.40;;
26530;SDS011;14201;43.188;24.160;2023-04-03T07:10:54;2.85;;;1.70;;
26530;SDS011;14201;43.188;24.160;2023-04-03T07:13:20;2.65;;;1.80;;
26530;SDS011;14201;43.188;24.160;2023-04-03T07:15:46;2.28;;;1.73;;
26530;SDS011;14201;43.188;24.160;2023-04-03T07:18:11;4.30;;;1.85;;
26530;SDS011;14201;43.188;24.160;2023-04-03T07:20:38;6.90;;;1.70;;
26530;SDS011;14201;43.188;24.160;2023-04-03T07:23:03;4.97;;;1.85;;
26530;SDS011;14201;43.188;24.160;2023-04-03T07:25:29;2.60;;;1.70;;
26530;SDS011;14201;43.188;24.160;2023-04-03T07:27:56;4.28;;;1.88;;
26530;SDS011;14201;43.188;24.160;2023-04-03T07:30:22;5.13;;;1.73;;
26530;SDS011;14201;43.188;24.160;2023-04-03T07:32:48;1.98;;;1.33;;
26530;SDS011;14201;43.188;24.160;2023-04-03T07:35:14;1.95;;;1.30;;
26530;SDS011;14201;43.188;24.160;2023-04-03T07:37:39;4.07;;;1.55;;
26530;SDS011;14201;43.188;24.160;2023-04-03T07:40:06;5.47;;;1.58;;
26530;SDS011;14201;43.188;24.160;2023-04-03T07:42:32;4.68;;;1.50;;
26530;SDS011;14201;43.188;24.160;2023-04-03T07:44:57;3.38;;;1.20;;
26530;SDS011;14201;43.188;24.160;2023-04-03T07:47:23;4.78;;;1.30;;
26530;SDS011;14201;43.188;24.160;2023-04-03T07:49:49;2.22;;;1.10;;
26530;SDS011;14201;43.188;24.160;2023-04-03T07:52:14;1.52;;;1.08;;
26530;SDS011;14201;43.188;24.160;2023-04-03T07:54:40;1.90;;;1.08;;
26530;SDS011;14201;43.188;24.160;2023-04-03T07:57:07;1.17;;;1.00;;
26530;SDS011;14201;43.188;24.160;2023-04-03T07:59:32;1.67;;;1.20;;
26530;SDS011;14201;43.188;24.160;2023-04-03T08:01:58;2.58;;;0.98;;
26530;SDS011;14201;43.188;24.160;2023-04-03T08:04:24;1.58;;;0.90;;
26530;SDS011;14201;43.188;24.160;2023-04-03T08:06:51;1.10;;;1.00;;
26530;SDS011;14201;43.188;24.160;2023-04-03T08:09:17;1.85;;;0.90;;
26530;SDS011;14201;43.188;24.160;2023-04-03T08:11:44;1.40;;;1.00;;
26530;SDS011;14201;43.188;24.160;2023-04-03T08:14:10;1.95;;;0.93;;
26530;SDS011;14201;43.188;24.160;2023-04-03T08:16:41;1.05;;;0.73;;
26530;SDS011;14201;43.188;24.160;2023-04-03T08:19:08;1.00;;;0.70;;
26530;SDS011;14201;43.188;24.160;2023-04-03T08:21:35;0.75;;;0.70;;
26530;SDS011;14201;43.188;24.160;2023-04-03T08:24:01;1.10;;;0.85;;
26530;SDS011;14201;43.188;24.160;2023-04-03T08:26:29;3.70;;;0.80;;
26530;SDS011;14201;43.188;24.160;2023-04-03T09:04:10;0.80;;;0.60;;
26530;SDS011;14201;43.188;24.160;2023-04-03T09:06:38;2.50;;;0.68;;
26530;SDS011;14201;43.188;24.160;2023-04-03T10:06:53;2.43;;;1.10;;
26530;SDS011;14201;43.188;24.160;2023-04-03T10:09:29;1.45;;;1.05;;
26530;SDS011;14201;43.188;24.160;2023-04-03T10:14:36;1.77;;;1.00;;
26530;SDS011;14201;43.188;24.160;2023-04-03T10:22:55;1.88;;;1.17;;
26530;SDS011;14201;43.188;24.160;2023-04-03T10:26:08;2.47;;;0.90;;
26530;SDS011;14201;43.188;24.160;2023-04-03T10:31:25;1.80;;;1.30;;
26530;SDS011;14201;43.188;24.160;2023-04-03T10:34:22;4.90;;;1.00;;
26530;SDS011;14201;43.188;24.160;2023-04-03T10:43:20;1.33;;;1.05;;
26530;SDS011;14201;43.188;24.160;2023-04-03T10:45:46;2.87;;;1.37;;
26530;SDS011;14201;43.188;24.160;2023-04-03T10:57:10;4.63;;;1.10;;
26530;SDS011;14201;43.188;24.160;2023-04-03T11:02:26;1.58;;;1.05;;
26530;SDS011;14201;43.188;24.160;2023-04-03T11:04:58;1.52;;;1.10;;
26530;SDS011;14201;43.188;24.160;2023-04-03T11:07:48;1.38;;;1.00;;
26530;SDS011;14201;43.188;24.160;2023-04-03T11:10:35;1.98;;;1.02;;
26530;SDS011;14201;43.188;24.160;2023-04-03T11:15:38;2.78;;;1.00;;
26530;SDS011;14201;43.188;24.160;2023-04-03T11:18:05;1.45;;;0.90;;
26530;SDS011;14201;43.188;24.160;2023-04-03T11:20:36;1.30;;;0.90;;
26530;SDS011;14201;43.188;24.160;2023-04-03T11:25:39;1.10;;;1.00;;
26530;SDS011;14201;43.188;24.160;2023-04-03T11:28:12;2.95;;;0.80;;
26530;SDS011;14201;43.188;24.160;2023-04-03T11:33:21;1.65;;;1.10;;
26530;SDS011;14201;43.188;24.160;2023-04-03T11:35:49;1.67;;;1.10;;
26530;SDS011;14201;43.188;24.160;2023-04-03T11:41:04;1.48;;;1.00;;
26530;SDS011;14201;43.188;24.160;2023-04-03T11:43:32;2.63;;;1.27;;
26530;SDS011;14201;43.188;24.160;2023-04-03T11:46:00;1.65;;;1.30;;
26530;SDS011;14201;43.188;24.160;2023-04-03T11:53:38;2.70;;;1.10;;
26530;SDS011;14201;43.188;24.160;2023-04-03T12:01:50;2.63;;;1.30;;
26530;SDS011;14201;43.188;24.160;2023-04-03T12:04:18;1.38;;;1.20;;
26530;SDS011;14201;43.188;24.160;2023-04-03T12:09:25;1.48;;;1.30;;
26530;SDS011;14201;43.188;24.160;2023-04-03T12:12:00;1.52;;;1.20;;
26530;SDS011;14201;43.188;24.160;2023-04-03T12:14:46;2.55;;;1.10;;
26530;SDS011;14201;43.188;24.160;2023-04-03T12:17:18;1.63;;;1.05;;
26530;SDS011;14201;43.188;24.160;2023-04-03T12:19:51;1.60;;;1.15;;
26530;SDS011;14201;43.188;24.160;2023-04-03T12:22:18;1.48;;;1.10;;
26530;SDS011;14201;43.188;24.160;2023-04-03T12:24:46;2.00;;;1.38;;
26530;SDS011;14201;43.188;24.160;2023-04-03T12:48:48;0.95;;;0.85;;
26530;SDS011;14201;43.188;24.160;2023-04-03T12:51:22;3.00;;;1.45;;
26530;SDS011;14201;43.188;24.160;2023-04-03T12:53:52;1.58;;;1.23;;
26530;SDS011;14201;43.188;24.160;2023-04-03T12:56:30;1.85;;;1.30;;
26530;SDS011;14201;43.188;24.160;2023-04-03T12:59:16;2.03;;;1.50;;
26530;SDS011;14201;43.188;24.160;2023-04-03T13:01:42;2.40;;;1.52;;
26530;SDS011;14201;43.188;24.160;2023-04-03T13:04:09;2.60;;;1.35;;
26530;SDS011;14201;43.188;24.160;2023-04-03T13:06:41;2.67;;;1.30;;
26530;SDS011;14201;43.188;24.160;2023-04-03T13:09:27;2.55;;;1.25;;
26530;SDS011;14201;43.188;24.160;2023-04-03T13:11:57;3.80;;;1.40;;
26530;SDS011;14201;43.188;24.160;2023-04-03T13:14:26;2.15;;;1.35;;
26530;SDS011;14201;43.188;24.160;2023-04-03T13:16:54;1.50;;;1.10;;
26530;SDS011;14201;43.188;24.160;2023-04-03T13:19:35;1.73;;;0.90;;
26530;SDS011;14201;43.188;24.160;2023-04-03T13:22:04;1.45;;;1.08;;
26530;SDS011;14201;43.188;24.160;2023-04-03T13:24:33;2.65;;;1.20;;
26530;SDS011;14201;43.188;24.160;2023-04-03T13:27:02;1.70;;;1.30;;
26530;SDS011;14201;43.188;24.160;2023-04-03T13:29:29;2.65;;;1.30;;
26530;SDS011;14201;43.188;24.160;2023-04-03T13:31:57;2.35;;;1.20;;
26530;SDS011;14201;43.188;24.160;2023-04-03T13:34:25;2.55;;;1.30;;
26530;SDS011;14201;43.188;24.160;2023-04-03T13:41:47;1.90;;;1.50;;
26530;SDS011;14201;43.188;24.160;2023-04-03T13:46:43;2.60;;;1.73;;
26530;SDS011;14201;43.188;24.160;2023-04-03T13:49:19;2.83;;;1.70;;
26530;SDS011;14201;43.188;24.160;2023-04-03T13:51:51;2.60;;;1.75;;
26530;SDS011;14201;43.188;24.160;2023-04-03T13:54:36;2.30;;;1.48;;
26530;SDS011;14201;43.188;24.160;2023-04-03T13:57:10;2.55;;;1.50;;
26530;SDS011;14201;43.188;24.160;2023-04-03T13:59:39;2.92;;;2.03;;
26530;SDS011;14201;43.188;24.160;2023-04-03T14:07:02;2.40;;;1.60;;
26530;SDS011;14201;43.188;24.160;2023-04-03T14:09:28;1.70;;;1.17;;
26530;SDS011;14201;43.188;24.160;2023-04-03T14:11:56;3.67;;;1.55;;
26530;SDS011;14201;43.188;24.160;2023-04-03T14:14:30;2.35;;;1.45;;
26530;SDS011;14201;43.188;24.160;2023-04-03T14:16:59;3.00;;;1.20;;
26530;SDS011;14201;43.188;24.160;2023-04-03T14:19:30;2.75;;;1.48;;
26530;SDS011;14201;43.188;24.160;2023-04-03T14:21:58;3.97;;;1.25;;
26530;SDS011;14201;43.188;24.160;2023-04-03T14:24:25;2.17;;;1.50;;
26530;SDS011;14201;43.188;24.160;2023-04-03T14:26:53;2.15;;;1.42;;
26530;SDS011;14201;43.188;24.160;2023-04-03T14:29:20;3.25;;;1.40;;
26530;SDS011;14201;43.188;24.160;2023-04-03T14:31:47;4.15;;;1.70;;
26530;SDS011;14201;43.188;24.160;2023-04-03T14:34:14;2.60;;;1.50;;
26530;SDS011;14201;43.188;24.160;2023-04-03T14:36:41;2.25;;;1.48;;
26530;SDS011;14201;43.188;24.160;2023-04-03T14:39:10;1.60;;;1.27;;
26530;SDS011;14201;43.188;24.160;2023-04-03T14:41:42;3.35;;;1.30;;
26530;SDS011;14201;43.188;24.160;2023-04-03T14:44:08;3.08;;;1.60;;
26530;SDS011;14201;43.188;24.160;2023-04-03T14:46:36;3.08;;;1.55;;
26530;SDS011;14201;43.188;24.160;2023-04-03T14:49:14;5.93;;;1.42;;
26530;SDS011;14201;43.188;24.160;2023-04-03T14:51:43;2.88;;;1.58;;
26530;SDS011;14201;43.188;24.160;2023-04-03T14:54:13;6.22;;;1.48;;
26530;SDS011;14201;43.188;24.160;2023-04-03T14:56:40;2.40;;;1.40;;
26530;SDS011;14201;43.188;24.160;2023-04-03T14:59:08;2.50;;;1.25;;
26530;SDS011;14201;43.188;24.160;2023-04-03T15:01:36;1.67;;;1.20;;
26530;SDS011;14201;43.188;24.160;2023-04-03T15:04:01;3.00;;;1.33;;
26530;SDS011;14201;43.188;24.160;2023-04-03T15:06:35;3.78;;;1.30;;
26530;SDS011;14201;43.188;24.160;2023-04-03T15:09:01;4.30;;;1.40;;
26530;SDS011;14201;43.188;24.160;2023-04-03T15:11:28;4.88;;;1.80;;
26530;SDS011;14201;43.188;24.160;2023-04-03T15:13:54;3.05;;;1.65;;
26530;SDS011;14201;43.188;24.160;2023-04-03T15:16:19;2.22;;;1.45;;
26530;SDS011;14201;43.188;24.160;2023-04-03T15:18:46;2.90;;;1.55;;
26530;SDS011;14201;43.188;24.160;2023-04-03T15:21:12;2.88;;;1.65;;
26530;SDS011;14201;43.188;24.160;2023-04-03T15:23:38;6.93;;;1.80;;
26530;SDS011;14201;43.188;24.160;2023-04-03T15:26:04;3.80;;;2.13;;
26530;SDS011;14201;43.188;24.160;2023-04-03T15:30:55;3.78;;;1.63;;
26530;SDS011;14201;43.188;24.160;2023-04-03T15:33:21;3.88;;;1.85;;
26530;SDS011;14201;43.188;24.160;2023-04-03T15:35:47;3.42;;;1.60;;
26530;SDS011;14201;43.188;24.160;2023-04-03T15:38:13;2.85;;;1.35;;
26530;SDS011;14201;43.188;24.160;2023-04-03T15:40:39;2.80;;;1.65;;
26530;SDS011;14201;43.188;24.160;2023-04-03T15:43:05;2.20;;;1.38;;
26530;SDS011;14201;43.188;24.160;2023-04-03T15:45:31;2.38;;;1.45;;
26530;SDS011;14201;43.188;24.160;2023-04-03T15:47:58;1.85;;;1.20;;
26530;SDS011;14201;43.188;24.160;2023-04-03T15:50:24;4.40;;;1.38;;
26530;SDS011;14201;43.188;24.160;2023-04-03T15:52:51;4.65;;;1.55;;
26530;SDS011;14201;43.188;24.160;2023-04-03T15:55:23;2.33;;;1.10;;
26530;SDS011;14201;43.188;24.160;2023-04-03T15:57:50;1.67;;;1.50;;
26530;SDS011;14201;43.188;24.160;2023-04-03T16:00:17;4.03;;;1.38;;
26530;SDS011;14201;43.188;24.160;2023-04-03T16:02:44;2.25;;;1.20;;
26530;SDS011;14201;43.188;24.160;2023-04-03T16:05:11;3.55;;;1.50;;
26530;SDS011;14201;43.188;24.160;2023-04-03T16:07:39;2.58;;;1.25;;
26530;SDS011;14201;43.188;24.160;2023-04-03T16:10:05;1.55;;;1.45;;
26530;SDS011;14201;43.188;24.160;2023-04-03T16:12:32;2.05;;;1.42;;
26530;SDS011;14201;43.188;24.160;2023-04-03T16:14:58;2.92;;;1.70;;
26530;SDS011;14201;43.188;24.160;2023-04-03T16:17:24;3.30;;;1.83;;
26530;SDS011;14201;43.188;24.160;2023-04-03T16:19:51;2.63;;;1.77;;
26530;SDS011;14201;43.188;24.160;2023-04-03T16:22:17;5.18;;;1.73;;
26530;SDS011;14201;43.188;24.160;2023-04-03T16:24:42;3.08;;;1.70;;
26530;SDS011;14201;43.188;24.160;2023-04-03T16:27:08;2.97;;;1.30;;
26530;SDS011;14201;43.188;24.160;2023-04-03T16:29:33;3.88;;;1.52;;
26530;SDS011;14201;43.188;24.160;2023-04-03T16:31:59;1.60;;;1.27;;
26530;SDS011;14201;43.188;24.160;2023-04-03T16:34:25;2.35;;;1.55;;
26530;SDS011;14201;43.188;24.160;2023-04-03T16:36:51;2.25;;;1.40;;
26530;SDS011;14201;43.188;24.160;2023-04-03T16:39:17;2.17;;;1.38;;
26530;SDS011;14201;43.188;24.160;2023-04-03T16:41:43;2.22;;;1.52;;
26530;SDS011;14201;43.188;24.160;2023-04-03T16:44:10;2.97;;;1.67;;
26530;SDS011;14201;43.188;24.160;2023-04-03T16:46:36;2.40;;;1.60;;
26530;SDS011;14201;43.188;24.160;2023-04-03T16:49:02;2.10;;;1.50;;
26530;SDS011;14201;43.188;24.160;2023-04-03T16:51:28;4.20;;;1.80;;
26530;SDS011;14201;43.188;24.160;2023-04-03T16:53:54;2.35;;;1.55;;
26530;SDS011;14201;43.188;24.160;2023-04-03T16:56:19;2.92;;;1.77;;
26530;SDS011;14201;43.188;24.160;2023-04-03T16:58:45;7.22;;;4.28;;
26530;SDS011;14201;43.188;24.160;2023-04-03T17:01:11;13.27;;;8.93;;
26530;SDS011;14201;43.188;24.160;2023-04-03T17:03:39;13.90;;;8.73;;
26530;SDS011;14201;43.188;24.160;2023-04-03T17:06:05;9.57;;;7.53;;
26530;SDS011;14201;43.188;24.160;2023-04-03T17:08:31;6.20;;;4.40;;
26530;SDS011;14201;43.188;24.160;2023-04-03T17:10:56;5.95;;;4.80;;
26530;SDS011;14201;43.188;24.160;2023-04-03T17:13:22;7.55;;;4.05;;
26530;SDS011;14201;43.188;24.160;2023-04-03T17:15:47;6.22;;;3.88;;
26530;SDS011;14201;43.188;24.160;2023-04-03T17:18:13;7.18;;;3.60;;
26530;SDS011;14201;43.188;24.160;2023-04-03T17:20:39;5.15;;;3.50;;
26530;SDS011;14201;43.188;24.160;2023-04-03T17:23:05;6.95;;;3.42;;
26530;SDS011;14201;43.188;24.160;2023-04-03T17:25:31;8.55;;;5.63;;
26530;SDS011;14201;43.188;24.160;2023-04-03T17:27:57;5.03;;;3.80;;
26530;SDS011;14201;43.188;24.160;2023-04-03T17:30:22;7.07;;;4.63;;
26530;SDS011;14201;43.188;24.160;2023-04-03T17:32:48;7.50;;;4.20;;
26530;SDS011;14201;43.188;24.160;2023-04-03T17:35:13;8.18;;;4.18;;
26530;SDS011;14201;43.188;24.160;2023-04-03T17:37:39;7.25;;;4.47;;
26530;SDS011;14201;43.188;24.160;2023-04-03T17:40:05;8.60;;;4.10;;
26530;SDS011;14201;43.188;24.160;2023-04-03T17:42:31;6.40;;;3.75;;